createdAt,value
2022-12-25T00:00:22.164Z,77.13
2022-12-25T00:01:22.107Z,77.31
2022-12-25T00:02:22.144Z,77.47
2022-12-25T00:03:22.315Z,77.54
2022-12-25T00:04:22.146Z,77.37
2022-12-25T00:05:22.083Z,77.62
2022-12-25T00:06:22.128Z,77.96
2022-12-25T00:07:22.041Z,77.60
2022-12-25T00:08:22.081Z,77.69
2022-12-25T00:09:22.035Z,78.07
2022-12-25T00:10:21.996Z,78.35
2022-12-25T00:11:22.017Z,78.18
2022-12-25T00:12:21.996Z,77.99
2022-12-25T00:13:22.027Z,78.18
2022-12-25T00:14:21.947Z,78.66
2022-12-25T00:15:21.938Z,78.92
2022-12-25T00:16:21.995Z,79.10
2022-12-25T00:17:21.927Z,79.24
2022-12-25T00:18:21.906Z,79.43
2022-12-25T00:19:21.876Z,79.71
2022-12-25T00:20:21.913Z,79.80
2022-12-25T00:21:21.859Z,79.63
2022-12-25T00:22:21.850Z,79.62
2022-12-25T00:23:21.852Z,79.74
2022-12-25T00:24:21.908Z,79.88
2022-12-25T00:25:21.806Z,80.10
2022-12-25T00:26:21.818Z,80.18
2022-12-25T00:27:21.778Z,80.21
2022-12-25T00:28:21.789Z,80.24
2022-12-25T00:29:21.836Z,80.05
2022-12-25T00:30:21.764Z,79.81
2022-12-25T00:31:21.755Z,79.65
2022-12-25T00:32:21.720Z,79.36
2022-12-25T00:33:21.743Z,79.39
2022-12-25T00:34:21.706Z,79.61
2022-12-25T00:35:21.687Z,79.67
2022-12-25T00:36:21.725Z,79.79
2022-12-25T00:37:21.665Z,79.99
2022-12-25T00:38:21.726Z,79.63
2022-12-25T00:39:21.652Z,79.62
2022-12-25T00:40:21.631Z,79.85
2022-12-25T00:41:21.647Z,80.08
2022-12-25T00:42:21.603Z,80.13
2022-12-25T00:43:21.602Z,80.28
2022-12-25T00:44:21.602Z,80.38
2022-12-25T00:45:23.038Z,80.44
2022-12-25T00:46:21.725Z,80.36
2022-12-25T00:47:21.649Z,80.26
2022-12-25T00:48:21.507Z,80.13
2022-12-25T00:49:21.533Z,80.22
2022-12-25T00:50:21.537Z,80.22
2022-12-25T00:51:21.491Z,79.71
2022-12-25T00:52:21.497Z,79.85
2022-12-25T00:53:21.457Z,79.70
2022-12-25T00:54:21.452Z,79.45
2022-12-25T00:55:21.433Z,79.50
2022-12-25T00:56:21.463Z,79.66
2022-12-25T00:57:21.481Z,79.65
2022-12-25T00:58:21.388Z,79.75
2022-12-25T00:59:21.386Z,79.89
2022-12-25T01:00:21.414Z,80.16
2022-12-25T01:01:21.473Z,80.30
2022-12-25T01:02:21.609Z,80.49
2022-12-25T01:03:21.456Z,80.52
2022-12-25T01:04:21.326Z,80.40
2022-12-25T01:05:21.391Z,80.40
2022-12-25T01:06:21.339Z,80.52
2022-12-25T01:07:21.273Z,80.64
2022-12-25T01:08:21.279Z,80.73
2022-12-25T01:09:21.328Z,80.72
2022-12-25T01:10:21.890Z,80.73
2022-12-25T01:11:21.236Z,80.88
2022-12-25T01:12:21.236Z,80.94
2022-12-25T01:13:21.239Z,81.02
2022-12-25T01:14:21.247Z,81.02
2022-12-25T01:15:21.414Z,81.10
2022-12-25T01:16:21.231Z,81.16
2022-12-25T01:17:21.182Z,81.08
2022-12-25T01:18:21.213Z,80.77
2022-12-25T01:19:21.130Z,80.35
2022-12-25T01:20:21.178Z,80.15
2022-12-25T01:21:21.145Z,80.30
2022-12-25T01:22:21.098Z,80.39
2022-12-25T01:23:21.071Z,80.31
2022-12-25T01:24:21.064Z,80.38
2022-12-25T01:25:21.054Z,80.55
2022-12-25T01:26:21.028Z,80.53
2022-12-25T01:27:21.033Z,80.34
2022-12-25T01:28:21.080Z,80.24
2022-12-25T01:29:20.988Z,80.53
2022-12-25T01:30:21.005Z,80.76
2022-12-25T01:31:21.061Z,80.80
2022-12-25T01:32:20.954Z,80.81
2022-12-25T01:33:20.942Z,80.81
2022-12-25T01:34:20.943Z,80.94
2022-12-25T01:35:20.925Z,80.87
2022-12-25T01:36:20.903Z,81.02
2022-12-25T01:37:20.906Z,81.26
2022-12-25T01:38:20.945Z,81.53
2022-12-25T01:39:20.901Z,81.38
2022-12-25T01:40:20.856Z,81.18
2022-12-25T01:41:20.846Z,81.44
2022-12-25T01:42:20.853Z,81.60
2022-12-25T01:43:20.819Z,81.40
2022-12-25T01:44:20.803Z,81.50
2022-12-25T01:45:20.803Z,81.67
2022-12-25T01:46:20.857Z,81.53
2022-12-25T01:47:20.772Z,81.61
2022-12-25T01:48:20.772Z,81.69
2022-12-25T01:49:20.736Z,81.78
2022-12-25T01:50:20.743Z,81.68
2022-12-25T01:51:20.744Z,81.69
2022-12-25T01:52:24.050Z,81.88
2022-12-25T01:53:20.718Z,81.97
2022-12-25T01:54:20.670Z,82.08
2022-12-25T01:55:20.648Z,82.20
2022-12-25T01:56:20.712Z,82.28
2022-12-25T01:57:20.675Z,82.42
2022-12-25T01:58:20.614Z,82.51
2022-12-25T01:59:20.652Z,82.62
2022-12-25T02:00:20.596Z,82.75
2022-12-25T02:01:20.671Z,82.86
2022-12-25T02:02:20.699Z,82.98
2022-12-25T02:03:20.647Z,83.09
2022-12-25T02:04:20.542Z,82.92
2022-12-25T02:05:20.544Z,82.82
2022-12-25T02:06:20.540Z,82.80
2022-12-25T02:07:20.500Z,82.80
2022-12-25T02:08:20.499Z,82.87
2022-12-25T02:09:20.480Z,82.99
2022-12-25T02:10:20.462Z,83.06
2022-12-25T02:11:20.476Z,82.96
2022-12-25T02:12:20.461Z,82.93
2022-12-25T02:13:20.436Z,83.05
2022-12-25T02:14:20.407Z,83.03
2022-12-25T02:15:20.388Z,83.12
2022-12-25T02:16:20.445Z,83.07
2022-12-25T02:17:20.530Z,82.95
2022-12-25T02:18:20.394Z,82.86
2022-12-25T02:19:20.352Z,82.91
2022-12-25T02:20:20.343Z,83.01
2022-12-25T02:21:20.329Z,83.05
2022-12-25T02:22:20.342Z,83.11
2022-12-25T02:23:20.293Z,83.18
2022-12-25T02:24:20.308Z,83.31
2022-12-25T02:25:20.266Z,83.45
2022-12-25T02:26:20.251Z,83.38
2022-12-25T02:27:20.241Z,83.28
2022-12-25T02:28:20.240Z,83.27
2022-12-25T02:29:20.254Z,83.32
2022-12-25T02:30:20.237Z,83.37
2022-12-25T02:31:20.253Z,83.41
2022-12-25T02:32:20.297Z,83.38
2022-12-25T02:33:20.235Z,83.40
2022-12-25T02:34:20.212Z,83.37
2022-12-25T02:35:20.153Z,83.31
2022-12-25T02:36:21.291Z,83.12
2022-12-25T02:37:20.147Z,82.86
2022-12-25T02:38:20.137Z,82.75
2022-12-25T02:39:20.128Z,82.74
2022-12-25T02:40:20.153Z,82.78
2022-12-25T02:41:20.060Z,82.77
2022-12-25T02:42:20.094Z,82.77
2022-12-25T02:43:20.065Z,82.76
2022-12-25T02:44:20.052Z,82.73
2022-12-25T02:45:20.013Z,82.72
2022-12-25T02:46:20.113Z,82.66
2022-12-25T02:47:19.980Z,82.57
2022-12-25T02:48:19.994Z,82.40
2022-12-25T02:50:55.253Z,82.03
2022-12-25T02:51:56.222Z,82.16
2022-12-25T02:52:56.115Z,82.12
2022-12-25T02:53:56.063Z,82.10
2022-12-25T02:54:56.010Z,82.12
2022-12-25T02:55:56.015Z,82.12
2022-12-25T02:56:56.025Z,82.08
2022-12-25T02:57:56.024Z,82.00
2022-12-25T02:58:55.984Z,81.95
2022-12-25T03:03:45.339Z,81.51
2022-12-25T03:07:33.041Z,81.41
2022-12-25T03:08:33.579Z,81.90
2022-12-25T03:09:33.608Z,81.85
2022-12-25T03:10:33.493Z,81.73
2022-12-25T03:11:33.500Z,81.63
2022-12-25T03:12:33.489Z,81.58
2022-12-25T03:13:33.477Z,81.56
2022-12-25T03:14:33.467Z,81.54
2022-12-25T03:15:33.435Z,81.67
2022-12-25T03:16:33.483Z,81.59
2022-12-25T03:17:33.536Z,81.44
2022-12-25T03:18:33.425Z,81.39
2022-12-25T03:19:33.429Z,81.37
2022-12-25T03:20:33.417Z,81.32
2022-12-25T03:21:33.360Z,81.31
2022-12-25T03:22:33.335Z,81.36
2022-12-25T03:23:33.384Z,81.37
2022-12-25T03:24:33.349Z,81.43
2022-12-25T03:25:33.306Z,81.48
2022-12-25T03:26:33.311Z,81.48
2022-12-25T03:27:33.271Z,81.39
2022-12-25T03:28:33.330Z,81.31
2022-12-25T03:29:33.525Z,81.36
2022-12-25T03:30:33.302Z,81.35
2022-12-25T03:31:33.250Z,81.32
2022-12-25T03:32:33.216Z,81.29
2022-12-25T03:33:47.682Z,81.39
2022-12-25T03:34:33.196Z,81.33
2022-12-25T03:35:33.192Z,81.34
2022-12-25T03:36:33.172Z,81.22
2022-12-25T03:37:33.187Z,81.19
2022-12-25T03:38:33.144Z,81.14
2022-12-25T03:39:33.138Z,81.20
2022-12-25T03:40:33.117Z,81.23
2022-12-25T03:41:33.098Z,81.21
2022-12-25T03:42:33.074Z,81.24
2022-12-25T03:43:33.089Z,81.19
2022-12-25T03:44:33.057Z,81.07
2022-12-25T03:45:33.077Z,80.99
2022-12-25T03:46:33.064Z,80.99
2022-12-25T03:47:33.025Z,80.97
2022-12-25T03:48:33.047Z,81.01
2022-12-25T03:49:33.001Z,81.00
2022-12-25T03:50:32.990Z,81.07
2022-12-25T03:51:32.983Z,81.12
2022-12-25T03:52:32.987Z,81.17
2022-12-25T03:53:33.054Z,81.13
2022-12-25T03:54:32.985Z,81.00
2022-12-25T03:55:32.941Z,80.94
2022-12-25T03:56:32.936Z,80.90
2022-12-25T03:57:32.946Z,80.85
2022-12-25T03:58:32.884Z,80.77
2022-12-25T03:59:32.920Z,80.79
2022-12-25T04:00:32.853Z,80.86
2022-12-25T04:01:32.936Z,80.87
2022-12-25T04:02:32.987Z,80.86
2022-12-25T04:03:32.992Z,80.79
2022-12-25T04:04:32.803Z,80.81
2022-12-25T04:05:32.805Z,80.86
2022-12-25T04:06:32.811Z,80.87
2022-12-25T04:07:32.814Z,80.87
2022-12-25T04:08:32.769Z,80.98
2022-12-25T04:09:32.743Z,80.88
2022-12-25T04:10:32.735Z,81.01
2022-12-25T04:11:32.727Z,80.78
2022-12-25T04:12:32.720Z,80.68
2022-12-25T04:13:32.702Z,80.79
2022-12-25T04:14:32.698Z,80.88
2022-12-25T04:15:32.697Z,80.98
2022-12-25T04:16:32.656Z,81.02
2022-12-25T04:17:32.648Z,81.09
2022-12-25T04:18:32.626Z,81.05
2022-12-25T04:19:32.613Z,81.11
2022-12-25T04:20:32.634Z,81.19
2022-12-25T04:21:32.637Z,81.28
2022-12-25T04:22:32.584Z,81.38
2022-12-25T04:23:32.576Z,81.34
2022-12-25T04:24:32.551Z,81.37
2022-12-25T04:25:32.561Z,81.34
2022-12-25T04:26:32.575Z,81.32
2022-12-25T04:27:32.555Z,81.11
2022-12-25T04:28:32.521Z,81.12
2022-12-25T04:29:32.494Z,81.17
2022-12-25T04:30:32.491Z,81.24
2022-12-25T04:31:32.560Z,81.24
2022-12-25T04:32:32.469Z,81.28
2022-12-25T04:33:32.482Z,81.24
2022-12-25T04:34:32.433Z,81.30
2022-12-25T04:35:32.427Z,81.09
2022-12-25T04:36:32.427Z,80.98
2022-12-25T04:37:32.548Z,81.11
2022-12-25T04:38:32.384Z,81.24
2022-12-25T04:39:32.391Z,81.27
2022-12-25T04:40:32.457Z,81.39
2022-12-25T04:41:32.366Z,81.44
2022-12-25T04:42:32.335Z,81.50
2022-12-25T04:43:32.336Z,81.60
2022-12-25T04:44:32.351Z,81.55
2022-12-25T04:45:32.305Z,81.47
2022-12-25T04:46:32.364Z,81.49
2022-12-25T04:55:50.175Z,81.41
2022-12-25T04:56:51.226Z,81.53
2022-12-25T05:14:13.120Z,81.51
2022-12-25T05:22:33.362Z,81.58
2022-12-25T05:23:34.476Z,81.64
2022-12-25T05:24:34.019Z,81.68
2022-12-25T05:25:35.370Z,81.66
2022-12-25T05:26:34.060Z,81.73
2022-12-25T05:27:34.335Z,81.77
2022-12-25T05:28:34.079Z,81.76
2022-12-25T05:29:54.844Z,81.69
2022-12-25T05:30:34.094Z,81.65
2022-12-25T05:31:35.497Z,81.66
2022-12-25T05:32:34.890Z,81.82
2022-12-25T05:33:34.030Z,81.76
2022-12-25T05:34:34.339Z,81.82
2022-12-25T05:35:33.978Z,81.78
2022-12-25T05:36:45.605Z,81.69
2022-12-25T05:38:35.696Z,81.62
2022-12-25T05:38:41.297Z,81.61
2022-12-25T05:39:41.000Z,81.68
2022-12-25T05:40:41.404Z,81.69
2022-12-25T05:41:41.099Z,81.71
2022-12-25T05:42:40.946Z,81.80
2022-12-25T05:43:41.046Z,81.82
2022-12-25T05:44:43.948Z,81.87
2022-12-25T05:45:41.065Z,81.86
2022-12-25T05:46:40.931Z,81.86
2022-12-25T05:47:40.907Z,81.95
2022-12-25T05:48:40.893Z,81.94
2022-12-25T05:49:40.869Z,81.85
2022-12-25T05:50:40.875Z,81.77
2022-12-25T05:51:40.853Z,81.76
2022-12-25T05:52:40.985Z,81.74
2022-12-25T05:53:40.887Z,81.79
2022-12-25T05:54:50.721Z,81.94
2022-12-25T05:55:40.946Z,81.91
2022-12-25T05:56:41.016Z,81.92
2022-12-25T05:57:40.845Z,81.90
2022-12-25T05:58:40.879Z,81.93
2022-12-25T05:59:40.857Z,82.01
2022-12-25T06:01:56.078Z,81.80
2022-12-25T06:02:56.682Z,82.00
2022-12-25T06:03:56.330Z,81.95
2022-12-25T06:04:58.428Z,81.97
2022-12-25T06:12:04.403Z,81.63
2022-12-25T06:13:05.305Z,81.85
2022-12-25T06:14:05.075Z,81.96
2022-12-25T06:15:16.242Z,81.96
2022-12-25T06:16:04.981Z,81.93
2022-12-25T06:17:06.595Z,81.92
2022-12-25T06:18:05.712Z,81.96
2022-12-25T06:19:05.005Z,81.98
2022-12-25T06:20:05.168Z,81.90
2022-12-25T06:21:05.130Z,81.93
2022-12-25T06:22:05.152Z,81.85
2022-12-25T06:23:06.221Z,81.85
2022-12-25T06:24:05.087Z,81.89
2022-12-25T06:25:04.989Z,81.94
2022-12-25T06:26:05.003Z,81.99
2022-12-25T06:27:04.989Z,81.98
2022-12-25T06:28:22.240Z,82.01
2022-12-25T06:30:33.736Z,81.77
2022-12-25T06:32:00.165Z,82.09
2022-12-25T06:33:47.422Z,81.94
2022-12-25T06:36:08.959Z,81.85
2022-12-25T06:40:48.902Z,81.68
2022-12-25T06:41:49.600Z,81.95
2022-12-25T06:49:46.221Z,81.71
2022-12-25T06:56:17.278Z,82.01
2022-12-25T07:09:34.049Z,82.21
2022-12-25T07:10:36.323Z,82.46
2022-12-25T07:11:38.181Z,82.50
2022-12-25T07:12:34.554Z,82.52
2022-12-25T07:13:40.042Z,82.50
2022-12-25T07:14:34.796Z,82.37
2022-12-25T07:15:34.327Z,82.45
2022-12-25T07:16:34.455Z,82.39
2022-12-25T07:21:05.553Z,82.31
2022-12-25T07:22:17.526Z,82.18
2022-12-25T07:23:06.473Z,82.25
2022-12-25T07:24:08.458Z,82.28
2022-12-25T07:28:02.853Z,82.28
2022-12-25T07:30:31.913Z,81.96
2022-12-25T07:33:18.426Z,82.05
2022-12-25T07:36:06.515Z,82.14
2022-12-25T07:39:49.576Z,82.27
2022-12-25T07:40:50.383Z,82.54
2022-12-25T07:41:50.427Z,82.59
2022-12-25T07:42:50.357Z,82.60
2022-12-25T07:43:50.377Z,82.58
2022-12-25T07:44:50.376Z,82.61
2022-12-25T07:45:50.516Z,82.64
2022-12-25T07:46:50.273Z,82.64
2022-12-25T07:47:50.240Z,82.57
2022-12-25T07:48:50.230Z,82.69
2022-12-25T07:49:50.227Z,82.68
2022-12-25T07:50:50.202Z,82.66
2022-12-25T07:51:50.191Z,82.67
2022-12-25T07:52:50.187Z,82.68
2022-12-25T07:53:50.188Z,82.79
2022-12-25T07:54:50.176Z,82.76
2022-12-25T07:55:50.146Z,82.78
2022-12-25T07:56:50.126Z,82.72
2022-12-25T07:57:50.121Z,82.74
2022-12-25T07:58:50.112Z,82.74
2022-12-25T07:59:50.086Z,82.54
2022-12-25T08:00:50.172Z,82.55
2022-12-25T08:01:50.320Z,82.49
2022-12-25T08:02:50.234Z,82.46
2022-12-25T08:03:50.121Z,82.34
2022-12-25T08:04:50.056Z,82.35
2022-12-25T08:05:50.044Z,82.37
2022-12-25T08:06:50.035Z,82.39
2022-12-25T08:07:56.950Z,82.49
2022-12-25T08:08:49.983Z,82.52
2022-12-25T08:09:49.968Z,82.51
2022-12-25T08:10:49.971Z,82.48
2022-12-25T08:11:49.954Z,82.46
2022-12-25T08:12:49.958Z,82.44
2022-12-25T08:13:49.949Z,82.42
2022-12-25T08:14:49.917Z,82.29
2022-12-25T08:15:49.887Z,82.19
2022-12-25T08:16:49.937Z,82.17
2022-12-25T08:17:49.887Z,82.22
2022-12-25T08:18:49.905Z,82.28
2022-12-25T08:19:49.871Z,82.33
2022-12-25T08:20:49.845Z,82.39
2022-12-25T08:21:49.824Z,82.35
2022-12-25T08:22:49.816Z,82.30
2022-12-25T08:23:49.787Z,81.99
2022-12-25T08:24:49.793Z,81.97
2022-12-25T08:25:49.781Z,81.78
2022-12-25T08:26:49.830Z,81.84
2022-12-25T08:27:49.744Z,81.92
2022-12-25T08:28:49.784Z,81.92
2022-12-25T08:29:49.711Z,81.98
2022-12-25T08:30:49.739Z,81.95
2022-12-25T08:31:49.686Z,81.95
2022-12-25T08:32:49.697Z,81.85
2022-12-25T08:33:49.667Z,81.73
2022-12-25T08:34:49.680Z,81.48
2022-12-25T08:35:49.634Z,81.37
2022-12-25T08:36:49.624Z,81.35
2022-12-25T08:37:49.647Z,81.38
2022-12-25T08:38:49.636Z,81.41
2022-12-25T08:39:49.667Z,81.46
2022-12-25T08:40:49.607Z,81.44
2022-12-25T08:41:49.556Z,81.25
2022-12-25T08:42:49.554Z,81.25
2022-12-25T08:43:49.568Z,81.32
2022-12-25T08:44:49.536Z,81.36
2022-12-25T08:45:49.574Z,81.42
2022-12-25T08:46:49.520Z,81.41
2022-12-25T08:47:49.485Z,81.44
2022-12-25T08:48:49.503Z,81.53
2022-12-25T08:49:49.496Z,81.54
2022-12-25T08:50:49.444Z,81.56
2022-12-25T08:51:49.494Z,81.68
2022-12-25T08:52:49.425Z,81.62
2022-12-25T08:53:49.442Z,81.53
2022-12-25T08:54:49.404Z,81.43
2022-12-25T08:55:49.392Z,81.46
2022-12-25T08:56:49.402Z,81.43
2022-12-25T08:57:49.361Z,81.40
2022-12-25T08:58:49.502Z,81.36
2022-12-25T08:59:49.386Z,81.29
2022-12-25T09:00:49.384Z,81.23
2022-12-25T09:01:49.537Z,81.16
2022-12-25T09:02:49.431Z,81.20
2022-12-25T09:03:49.423Z,81.15
2022-12-25T09:04:49.294Z,81.15
2022-12-25T09:05:49.270Z,81.14
2022-12-25T09:06:49.251Z,81.13
2022-12-25T09:07:49.257Z,81.20
2022-12-25T09:08:50.066Z,81.26
2022-12-25T09:09:49.230Z,81.20
2022-12-25T09:10:49.233Z,81.20
2022-12-25T09:11:49.221Z,81.17
2022-12-25T09:12:49.197Z,81.19
2022-12-25T09:13:49.655Z,81.13
2022-12-25T09:14:49.199Z,81.07
2022-12-25T09:15:49.205Z,81.07
2022-12-25T09:16:49.163Z,81.10
2022-12-25T09:17:49.181Z,81.08
2022-12-25T09:18:49.105Z,81.01
2022-12-25T09:19:49.127Z,80.94
2022-12-25T09:20:49.224Z,80.75
2022-12-25T09:21:49.075Z,80.66
2022-12-25T09:22:49.073Z,80.72
2022-12-25T09:23:49.047Z,80.81
2022-12-25T09:24:49.035Z,80.88
2022-12-25T09:25:49.075Z,80.60
2022-12-25T09:26:49.015Z,80.38
2022-12-25T09:27:49.026Z,80.53
2022-12-25T09:28:52.409Z,80.47
2022-12-25T09:29:48.968Z,80.28
2022-12-25T09:30:48.995Z,80.13
2022-12-25T09:31:48.988Z,80.07
2022-12-25T09:32:49.084Z,80.23
2022-12-25T09:33:49.221Z,79.77
2022-12-25T09:34:49.823Z,79.96
2022-12-25T09:35:48.923Z,80.02
2022-12-25T09:36:48.913Z,79.59
2022-12-25T09:37:48.873Z,79.58
2022-12-25T09:38:48.900Z,79.55
2022-12-25T09:39:48.853Z,79.50
2022-12-25T09:40:48.846Z,79.36
2022-12-25T09:41:48.854Z,79.30
2022-12-25T09:42:48.855Z,79.27
2022-12-25T09:43:48.846Z,79.04
2022-12-25T09:44:48.795Z,79.00
2022-12-25T09:45:48.822Z,78.75
2022-12-25T09:46:48.915Z,78.66
2022-12-25T09:47:49.321Z,78.41
2022-12-25T09:48:48.969Z,78.47
2022-12-25T09:49:48.757Z,78.48
2022-12-25T09:50:50.117Z,78.54
2022-12-25T09:51:48.884Z,78.15
2022-12-25T09:52:48.703Z,78.18
2022-12-25T09:53:48.708Z,78.21
2022-12-25T09:54:48.686Z,78.25
2022-12-25T09:55:48.701Z,78.24
2022-12-25T09:56:48.689Z,78.17
2022-12-25T09:57:48.660Z,78.15
2022-12-25T09:58:48.638Z,78.10
2022-12-25T09:59:48.639Z,78.12
2022-12-25T10:00:48.649Z,78.06
2022-12-25T10:01:48.672Z,78.03
2022-12-25T10:02:48.744Z,78.04
2022-12-25T10:03:48.711Z,78.12
2022-12-25T10:04:48.554Z,78.10
2022-12-25T10:05:48.595Z,77.95
2022-12-25T10:06:48.547Z,77.97
2022-12-25T10:07:48.505Z,77.94
2022-12-25T10:08:48.545Z,77.95
2022-12-25T10:09:48.480Z,77.87
2022-12-25T10:10:48.494Z,77.83
2022-12-25T10:11:48.471Z,77.75
2022-12-25T10:12:48.434Z,77.71
2022-12-25T10:13:48.501Z,77.81
2022-12-25T10:14:48.406Z,77.70
2022-12-25T10:15:48.476Z,77.47
2022-12-25T10:16:48.452Z,77.33
2022-12-25T10:17:48.363Z,77.20
2022-12-25T10:18:48.410Z,77.17
2022-12-25T10:19:48.344Z,77.01
2022-12-25T10:20:48.556Z,77.07
2022-12-25T10:21:50.160Z,77.08
2022-12-25T10:22:49.276Z,77.08
2022-12-25T10:23:48.898Z,77.00
2022-12-25T10:24:49.105Z,76.85
2022-12-25T10:25:49.154Z,76.83
2022-12-25T10:26:48.833Z,76.93
2022-12-25T10:27:48.575Z,77.07
2022-12-25T10:28:48.223Z,77.04
2022-12-25T10:29:48.212Z,76.78
2022-12-25T10:30:48.213Z,76.19
2022-12-25T10:31:48.195Z,75.95
2022-12-25T10:32:48.178Z,75.83
2022-12-25T10:33:48.147Z,75.87
2022-12-25T10:34:48.156Z,75.71
2022-12-25T10:35:48.128Z,75.70
2022-12-25T10:36:48.119Z,75.74
2022-12-25T10:37:48.129Z,75.77
2022-12-25T10:38:48.099Z,75.73
2022-12-25T10:39:48.083Z,75.44
2022-12-25T10:40:48.102Z,75.58
2022-12-25T10:41:48.067Z,75.49
2022-12-25T10:42:48.056Z,75.35
2022-12-25T10:43:48.040Z,75.24
2022-12-25T10:44:48.019Z,75.14
2022-12-25T10:45:48.017Z,75.07
2022-12-25T10:46:48.079Z,74.94
2022-12-25T10:47:51.401Z,74.89
2022-12-25T10:48:47.962Z,75.04
2022-12-25T10:49:47.957Z,74.68
2022-12-25T10:50:47.948Z,74.29
2022-12-25T10:51:47.920Z,74.51
2022-12-25T10:52:47.913Z,74.53
2022-12-25T10:53:47.892Z,74.70
2022-12-25T10:54:47.889Z,74.80
2022-12-25T10:55:47.865Z,74.75
2022-12-25T10:56:47.842Z,74.86
2022-12-25T10:57:47.851Z,74.98
2022-12-25T10:58:47.827Z,75.01
2022-12-25T10:59:47.814Z,75.22
2022-12-25T11:00:47.807Z,75.34
2022-12-25T11:01:51.092Z,75.40
2022-12-25T11:02:48.037Z,75.48
2022-12-25T11:03:47.763Z,75.42
2022-12-25T11:04:47.743Z,75.30
2022-12-25T11:05:47.734Z,75.23
2022-12-25T11:06:47.725Z,75.25
2022-12-25T11:07:47.725Z,75.29
2022-12-25T11:08:47.689Z,75.30
2022-12-25T11:09:47.700Z,75.34
2022-12-25T11:10:47.667Z,75.34
2022-12-25T11:11:47.655Z,75.27
2022-12-25T11:12:47.663Z,75.15
2022-12-25T11:15:20.951Z,74.47
2022-12-25T11:16:22.236Z,74.72
2022-12-25T11:17:29.752Z,74.77
2022-12-25T11:18:20.682Z,74.74
2022-12-25T11:19:20.664Z,74.74
2022-12-25T11:20:20.699Z,74.71
2022-12-25T11:21:20.630Z,74.60
2022-12-25T11:22:20.782Z,74.56
2022-12-25T11:23:20.663Z,74.60
2022-12-25T11:24:20.728Z,74.60
2022-12-25T11:25:20.613Z,74.60
2022-12-25T11:28:07.512Z,73.97
2022-12-25T11:29:08.527Z,74.27
2022-12-25T11:30:14.272Z,74.34
2022-12-25T11:31:08.522Z,74.25
2022-12-25T11:32:08.444Z,74.16
2022-12-25T11:33:08.632Z,74.09
2022-12-25T11:34:08.506Z,73.98
2022-12-25T11:35:08.545Z,74.18
2022-12-25T11:36:08.407Z,74.22
2022-12-25T11:37:08.387Z,74.19
2022-12-25T11:38:08.366Z,74.37
2022-12-25T11:39:08.359Z,74.34
2022-12-25T11:40:08.327Z,73.91
2022-12-25T11:41:08.309Z,73.85
2022-12-25T11:42:08.306Z,73.77
2022-12-25T11:43:08.516Z,73.95
2022-12-25T11:44:08.292Z,74.21
2022-12-25T11:45:08.266Z,73.76
2022-12-25T11:46:08.286Z,73.84
2022-12-25T11:47:08.233Z,73.96
2022-12-25T11:48:08.225Z,73.85
2022-12-25T11:49:08.253Z,73.78
2022-12-25T11:50:08.210Z,73.83
2022-12-25T11:51:08.209Z,73.84
2022-12-25T11:52:08.179Z,73.48
2022-12-25T11:53:08.195Z,73.13
2022-12-25T11:54:08.190Z,72.89
2022-12-25T11:55:08.135Z,72.84
2022-12-25T11:56:08.190Z,72.75
2022-12-25T11:57:08.109Z,72.66
2022-12-25T11:58:08.105Z,72.43
2022-12-25T11:59:08.099Z,72.50
2022-12-25T12:00:08.076Z,72.48
2022-12-25T12:01:08.092Z,72.50
2022-12-25T12:02:08.202Z,72.46
2022-12-25T12:03:08.162Z,72.18
2022-12-25T12:04:08.160Z,71.86
2022-12-25T12:05:08.005Z,71.53
2022-12-25T12:06:08.005Z,71.49
2022-12-25T12:07:07.980Z,71.69
2022-12-25T12:08:08.077Z,71.79
2022-12-25T12:09:07.973Z,71.66
2022-12-25T12:10:08.131Z,71.31
2022-12-25T12:11:07.952Z,71.17
2022-12-25T12:12:07.925Z,71.05
2022-12-25T12:13:07.901Z,71.41
2022-12-25T12:14:13.908Z,71.72
2022-12-25T12:15:07.874Z,71.95
2022-12-25T12:16:07.908Z,72.10
2022-12-25T12:17:07.875Z,72.22
2022-12-25T12:18:07.856Z,72.49
2022-12-25T12:19:07.846Z,72.62
2022-12-25T12:20:08.003Z,72.73
2022-12-25T12:21:07.982Z,72.42
2022-12-25T12:22:07.841Z,71.83
2022-12-25T12:23:07.804Z,71.99
2022-12-25T12:24:07.803Z,71.58
2022-12-25T12:25:07.806Z,72.01
2022-12-25T12:26:07.745Z,71.74
2022-12-25T12:27:07.756Z,71.16
2022-12-25T12:28:07.765Z,70.98
2022-12-25T12:29:07.755Z,70.71
2022-12-25T12:30:07.712Z,70.29
2022-12-25T12:31:07.699Z,70.61
2022-12-25T12:32:07.761Z,70.35
2022-12-25T12:33:07.696Z,70.55
2022-12-25T12:34:07.657Z,69.94
2022-12-25T12:35:07.647Z,70.06
2022-12-25T12:36:07.665Z,70.27
2022-12-25T12:37:07.614Z,70.23
2022-12-25T12:38:07.573Z,70.28
2022-12-25T12:39:07.577Z,70.32
2022-12-25T12:40:07.590Z,70.12
2022-12-25T12:41:07.558Z,69.83
2022-12-25T12:42:07.557Z,69.90
2022-12-25T12:43:07.536Z,69.86
2022-12-25T12:44:07.526Z,69.96
2022-12-25T12:45:07.492Z,70.86
2022-12-25T12:46:07.587Z,71.14
2022-12-25T12:47:07.465Z,70.88
2022-12-25T12:48:07.444Z,70.58
2022-12-25T12:49:07.451Z,70.80
2022-12-25T12:50:07.447Z,70.68
2022-12-25T12:51:07.398Z,70.87
2022-12-25T12:52:07.409Z,70.96
2022-12-25T12:53:07.391Z,70.91
2022-12-25T12:54:07.396Z,70.67
2022-12-25T12:55:07.359Z,70.42
2022-12-25T12:56:07.349Z,70.37
2022-12-25T12:57:07.315Z,70.69
2022-12-25T12:58:07.333Z,70.83
2022-12-25T12:59:07.327Z,70.44
2022-12-25T13:00:10.820Z,70.70
2022-12-25T13:01:07.369Z,70.78
2022-12-25T13:02:07.373Z,70.87
2022-12-25T13:03:07.318Z,70.93
2022-12-25T13:04:07.282Z,70.87
2022-12-25T13:05:07.211Z,70.82
2022-12-25T13:06:07.227Z,71.21
2022-12-25T13:07:07.232Z,71.01
2022-12-25T13:08:07.189Z,70.71
2022-12-25T13:09:07.156Z,70.62
2022-12-25T13:10:07.186Z,70.49
2022-12-25T13:11:07.131Z,70.34
2022-12-25T13:12:07.132Z,70.36
2022-12-25T13:13:07.098Z,70.41
2022-12-25T13:14:07.131Z,70.50
2022-12-25T13:15:07.214Z,70.72
2022-12-25T13:16:07.118Z,70.50
2022-12-25T13:17:07.036Z,70.48
2022-12-25T13:18:07.090Z,70.60
2022-12-25T13:19:07.060Z,70.62
2022-12-25T13:20:07.005Z,70.45
2022-12-25T13:21:07.036Z,70.46
2022-12-25T13:22:06.968Z,70.47
2022-12-25T13:23:06.956Z,70.54
2022-12-25T13:24:07.020Z,70.49
2022-12-25T13:25:06.938Z,70.39
2022-12-25T13:26:06.923Z,70.44
2022-12-25T13:27:06.896Z,70.27
2022-12-25T13:28:06.885Z,70.24
2022-12-25T13:29:11.457Z,69.92
2022-12-25T13:30:06.879Z,70.05
2022-12-25T13:31:06.851Z,70.02
2022-12-25T13:32:06.880Z,70.11
2022-12-25T13:33:06.919Z,69.97
2022-12-25T13:34:06.804Z,69.79
2022-12-25T13:35:06.789Z,69.36
2022-12-25T13:36:06.801Z,68.94
2022-12-25T13:37:06.766Z,68.88
2022-12-25T13:38:06.749Z,68.90
2022-12-25T13:39:06.732Z,68.79
2022-12-25T13:40:06.750Z,68.81
2022-12-25T13:41:06.708Z,68.83
2022-12-25T13:42:06.712Z,68.61
2022-12-25T13:43:06.669Z,68.95
2022-12-25T13:44:06.673Z,69.04
2022-12-25T13:45:06.649Z,69.28
2022-12-25T13:46:06.720Z,69.20
2022-12-25T13:47:06.631Z,69.43
2022-12-25T13:48:06.620Z,69.49
2022-12-25T13:49:06.593Z,69.77
2022-12-25T13:50:06.587Z,70.65
2022-12-25T13:51:06.575Z,71.26
2022-12-25T13:52:06.573Z,71.39
2022-12-25T13:53:06.536Z,71.58
2022-12-25T13:54:07.125Z,70.90
2022-12-25T13:55:07.317Z,70.38
2022-12-25T13:56:06.625Z,70.65
2022-12-25T13:57:06.614Z,71.13
2022-12-25T13:58:06.551Z,71.11
2022-12-25T13:59:06.533Z,70.70
2022-12-25T14:00:06.506Z,70.97
2022-12-25T14:01:06.487Z,70.83
2022-12-25T14:02:06.606Z,70.84
2022-12-25T14:03:06.484Z,70.73
2022-12-25T14:04:06.407Z,69.94
2022-12-25T14:05:06.415Z,69.69
2022-12-25T14:06:06.392Z,69.29
2022-12-25T14:07:06.371Z,69.30
2022-12-25T14:08:06.375Z,69.69
2022-12-25T14:09:06.356Z,69.81
2022-12-25T14:10:06.365Z,69.99
2022-12-25T14:11:06.328Z,69.80
2022-12-25T14:12:06.323Z,69.83
2022-12-25T14:13:06.292Z,70.29
2022-12-25T14:14:06.288Z,70.33
2022-12-25T14:15:06.261Z,70.07
2022-12-25T14:16:06.277Z,69.61
2022-12-25T14:17:06.284Z,69.60
2022-12-25T14:18:06.238Z,70.42
2022-12-25T14:19:06.207Z,71.45
2022-12-25T14:20:08.740Z,70.49
2022-12-25T14:21:06.192Z,69.83
2022-12-25T14:22:06.225Z,69.72
2022-12-25T14:23:06.178Z,70.13
2022-12-25T14:24:06.154Z,69.65
2022-12-25T14:25:06.142Z,69.26
2022-12-25T14:26:06.118Z,69.03
2022-12-25T14:27:06.132Z,69.17
2022-12-25T14:28:06.099Z,69.08
2022-12-25T14:29:06.095Z,69.14
2022-12-25T14:30:06.168Z,69.11